sensor_id;sensor_type;location;lat;lon;timestamp;P1;durP1;ratioP1;P2;durP2;ratioP2
72275;SDS011;61204;49.980;8.358;2022-10-31T00:01:21;18.67;;;12.07;;
72275;SDS011;61204;49.980;8.358;2022-10-31T00:03:59;15.82;;;12.43;;
72275;SDS011;61204;49.980;8.358;2022-10-31T00:06:25;15.70;;;12.18;;
72275;SDS011;61204;49.980;8.358;2022-10-31T00:08:55;14.35;;;11.52;;
72275;SDS011;61204;49.980;8.358;2022-10-31T00:11:28;19.40;;;13.63;;
72275;SDS011;61204;49.980;8.358;2022-10-31T00:13:54;17.95;;;12.38;;
72275;SDS011;61204;49.980;8.358;2022-10-31T00:16:24;18.92;;;13.48;;
72275;SDS011;61204;49.980;8.358;2022-10-31T00:18:52;19.92;;;12.15;;
72275;SDS011;61204;49.980;8.358;2022-10-31T00:21:22;20.10;;;12.35;;
72275;SDS011;61204;49.980;8.358;2022-10-31T00:23:49;21.23;;;13.63;;
72275;SDS011;61204;49.980;8.358;2022-10-31T00:26:15;25.38;;;13.80;;
72275;SDS011;61204;49.980;8.358;2022-10-31T00:28:42;24.23;;;14.40;;
72275;SDS011;61204;49.980;8.358;2022-10-31T00:31:09;25.17;;;14.40;;
72275;SDS011;61204;49.980;8.358;2022-10-31T00:33:37;23.80;;;15.35;;
72275;SDS011;61204;49.980;8.358;2022-10-31T00:36:05;23.58;;;14.07;;
72275;SDS011;61204;49.980;8.358;2022-10-31T00:38:35;22.73;;;14.55;;
72275;SDS011;61204;49.980;8.358;2022-10-31T00:41:01;27.25;;;14.55;;
72275;SDS011;61204;49.980;8.358;2022-10-31T00:43:26;22.30;;;14.02;;
72275;SDS011;61204;49.980;8.358;2022-10-31T00:45:52;24.58;;;13.98;;
72275;SDS011;61204;49.980;8.358;2022-10-31T00:48:17;22.02;;;13.95;;
72275;SDS011;61204;49.980;8.358;2022-10-31T00:50:43;23.55;;;13.05;;
72275;SDS011;61204;49.980;8.358;2022-10-31T00:53:09;22.33;;;12.90;;
72275;SDS011;61204;49.980;8.358;2022-10-31T00:55:34;21.55;;;12.95;;
72275;SDS011;61204;49.980;8.358;2022-10-31T00:58:00;25.55;;;14.13;;
72275;SDS011;61204;49.980;8.358;2022-10-31T01:00:25;22.45;;;14.40;;
72275;SDS011;61204;49.980;8.358;2022-10-31T01:02:52;24.52;;;16.63;;
72275;SDS011;61204;49.980;8.358;2022-10-31T01:05:17;25.88;;;15.95;;
72275;SDS011;61204;49.980;8.358;2022-10-31T01:07:44;29.17;;;16.20;;
72275;SDS011;61204;49.980;8.358;2022-10-31T01:10:10;23.92;;;14.00;;
72275;SDS011;61204;49.980;8.358;2022-10-31T01:12:40;26.95;;;12.98;;
72275;SDS011;61204;49.980;8.358;2022-10-31T01:15:10;27.25;;;13.52;;
72275;SDS011;61204;49.980;8.358;2022-10-31T01:17:41;20.45;;;11.95;;
72275;SDS011;61204;49.980;8.358;2022-10-31T01:20:07;26.25;;;13.80;;
72275;SDS011;61204;49.980;8.358;2022-10-31T01:22:36;25.80;;;13.00;;
72275;SDS011;61204;49.980;8.358;2022-10-31T01:25:01;22.30;;;13.55;;
72275;SDS011;61204;49.980;8.358;2022-10-31T01:27:27;21.60;;;13.98;;
72275;SDS011;61204;49.980;8.358;2022-10-31T01:29:54;25.08;;;14.25;;
72275;SDS011;61204;49.980;8.358;2022-10-31T01:32:19;23.88;;;12.73;;
72275;SDS011;61204;49.980;8.358;2022-10-31T01:34:45;29.70;;;12.70;;
72275;SDS011;61204;49.980;8.358;2022-10-31T01:37:10;26.65;;;12.68;;
72275;SDS011;61204;49.980;8.358;2022-10-31T01:39:36;27.73;;;11.63;;
72275;SDS011;61204;49.980;8.358;2022-10-31T01:42:01;19.35;;;12.13;;
72275;SDS011;61204;49.980;8.358;2022-10-31T01:49:51;22.20;;;11.15;;
72275;SDS011;61204;49.980;8.358;2022-10-31T01:52:25;16.15;;;11.60;;
72275;SDS011;61204;49.980;8.358;2022-10-31T01:57:48;22.42;;;11.93;;
72275;SDS011;61204;49.980;8.358;2022-10-31T02:00:20;22.08;;;12.60;;
72275;SDS011;61204;49.980;8.358;2022-10-31T02:02:47;17.73;;;13.05;;
72275;SDS011;61204;49.980;8.358;2022-10-31T02:05:17;24.75;;;11.57;;
72275;SDS011;61204;49.980;8.358;2022-10-31T02:10:32;19.70;;;11.25;;
72275;SDS011;61204;49.980;8.358;2022-10-31T02:13:03;22.48;;;11.45;;
72275;SDS011;61204;49.980;8.358;2022-10-31T02:15:32;18.23;;;11.40;;
72275;SDS011;61204;49.980;8.358;2022-10-31T02:18:01;21.95;;;11.82;;
72275;SDS011;61204;49.980;8.358;2022-10-31T02:20:30;17.45;;;10.15;;
72275;SDS011;61204;49.980;8.358;2022-10-31T02:24:00;19.42;;;12.05;;
72275;SDS011;61204;49.980;8.358;2022-10-31T02:32:21;25.33;;;13.43;;
72275;SDS011;61204;49.980;8.358;2022-10-31T02:35:17;26.52;;;13.57;;
72275;SDS011;61204;49.980;8.358;2022-10-31T02:44:27;21.65;;;12.02;;
72275;SDS011;61204;49.980;8.358;2022-10-31T02:47:05;21.58;;;11.25;;
72275;SDS011;61204;49.980;8.358;2022-10-31T02:52:33;22.75;;;11.88;;
72275;SDS011;61204;49.980;8.358;2022-10-31T02:55:41;19.45;;;11.48;;
72275;SDS011;61204;49.980;8.358;2022-10-31T02:58:17;21.77;;;11.55;;
72275;SDS011;61204;49.980;8.358;2022-10-31T03:00:58;21.40;;;12.45;;
72275;SDS011;61204;49.980;8.358;2022-10-31T03:07:02;22.08;;;11.27;;
72275;SDS011;61204;49.980;8.358;2022-10-31T03:12:30;14.77;;;9.85;;
72275;SDS011;61204;49.980;8.358;2022-10-31T03:15:32;20.05;;;10.18;;
72275;SDS011;61204;49.980;8.358;2022-10-31T03:18:15;20.67;;;11.02;;
72275;SDS011;61204;49.980;8.358;2022-10-31T03:23:45;16.08;;;10.48;;
72275;SDS011;61204;49.980;8.358;2022-10-31T03:26:15;17.00;;;10.65;;
72275;SDS011;61204;49.980;8.358;2022-10-31T03:28:51;19.70;;;10.25;;
72275;SDS011;61204;49.980;8.358;2022-10-31T03:31:25;25.58;;;10.63;;
72275;SDS011;61204;49.980;8.358;2022-10-31T03:34:03;23.58;;;10.57;;
72275;SDS011;61204;49.980;8.358;2022-10-31T03:36:34;19.60;;;9.82;;
72275;SDS011;61204;49.980;8.358;2022-10-31T03:39:05;18.63;;;10.80;;
72275;SDS011;61204;49.980;8.358;2022-10-31T03:41:40;17.95;;;10.43;;
72275;SDS011;61204;49.980;8.358;2022-10-31T03:44:19;18.80;;;9.45;;
72275;SDS011;61204;49.980;8.358;2022-10-31T03:46:48;16.10;;;10.20;;
72275;SDS011;61204;49.980;8.358;2022-10-31T03:49:15;20.08;;;11.05;;
72275;SDS011;61204;49.980;8.358;2022-10-31T03:54:56;16.70;;;8.88;;
72275;SDS011;61204;49.980;8.358;2022-10-31T04:00:06;14.52;;;9.52;;
72275;SDS011;61204;49.980;8.358;2022-10-31T04:02:38;16.60;;;10.40;;
72275;SDS011;61204;49.980;8.358;2022-10-31T04:05:18;13.98;;;9.05;;
72275;SDS011;61204;49.980;8.358;2022-10-31T04:07:46;19.40;;;9.50;;
72275;SDS011;61204;49.980;8.358;2022-10-31T04:10:19;19.48;;;9.70;;
72275;SDS011;61204;49.980;8.358;2022-10-31T04:12:52;17.35;;;8.98;;
72275;SDS011;61204;49.980;8.358;2022-10-31T04:15:50;16.02;;;8.80;;
72275;SDS011;61204;49.980;8.358;2022-10-31T04:18:21;16.52;;;9.57;;
72275;SDS011;61204;49.980;8.358;2022-10-31T04:20:49;15.48;;;8.98;;
72275;SDS011;61204;49.980;8.358;2022-10-31T04:23:33;14.18;;;8.98;;
72275;SDS011;61204;49.980;8.358;2022-10-31T04:26:01;21.42;;;10.00;;
72275;SDS011;61204;49.980;8.358;2022-10-31T04:28:28;16.80;;;10.25;;
72275;SDS011;61204;49.980;8.358;2022-10-31T04:30:53;19.67;;;9.57;;
72275;SDS011;61204;49.980;8.358;2022-10-31T04:33:19;15.82;;;9.65;;
72275;SDS011;61204;49.980;8.358;2022-10-31T04:35:45;17.90;;;10.00;;
72275;SDS011;61204;49.980;8.358;2022-10-31T04:38:12;15.38;;;9.88;;
72275;SDS011;61204;49.980;8.358;2022-10-31T04:40:37;14.20;;;8.98;;
72275;SDS011;61204;49.980;8.358;2022-10-31T04:43:03;14.90;;;9.18;;
72275;SDS011;61204;49.980;8.358;2022-10-31T04:45:28;12.50;;;9.32;;
72275;SDS011;61204;49.980;8.358;2022-10-31T04:47:54;18.95;;;9.70;;
72275;SDS011;61204;49.980;8.358;2022-10-31T04:50:19;20.25;;;10.75;;
72275;SDS011;61204;49.980;8.358;2022-10-31T04:52:45;19.52;;;10.05;;
72275;SDS011;61204;49.980;8.358;2022-10-31T04:55:12;20.88;;;11.02;;
72275;SDS011;61204;49.980;8.358;2022-10-31T04:57:42;31.05;;;10.98;;
72275;SDS011;61204;49.980;8.358;2022-10-31T05:00:12;17.42;;;10.70;;
72275;SDS011;61204;49.980;8.358;2022-10-31T05:02:42;16.58;;;10.38;;
72275;SDS011;61204;49.980;8.358;2022-10-31T05:05:20;20.13;;;10.80;;
72275;SDS011;61204;49.980;8.358;2022-10-31T05:07:54;17.58;;;10.52;;
72275;SDS011;61204;49.980;8.358;2022-10-31T05:10:22;18.60;;;11.02;;
72275;SDS011;61204;49.980;8.358;2022-10-31T05:12:57;24.33;;;11.88;;
72275;SDS011;61204;49.980;8.358;2022-10-31T05:15:26;18.30;;;11.25;;
72275;SDS011;61204;49.980;8.358;2022-10-31T05:17:54;16.42;;;10.15;;
72275;SDS011;61204;49.980;8.358;2022-10-31T05:20:21;19.20;;;10.70;;
72275;SDS011;61204;49.980;8.358;2022-10-31T05:22:53;17.10;;;10.52;;
72275;SDS011;61204;49.980;8.358;2022-10-31T05:25:22;15.82;;;10.65;;
72275;SDS011;61204;49.980;8.358;2022-10-31T05:27:51;17.63;;;10.15;;
72275;SDS011;61204;49.980;8.358;2022-10-31T05:30:21;15.63;;;9.18;;
72275;SDS011;61204;49.980;8.358;2022-10-31T05:32:55;21.45;;;10.73;;
72275;SDS011;61204;49.980;8.358;2022-10-31T05:35:24;17.75;;;9.57;;
72275;SDS011;61204;49.980;8.358;2022-10-31T05:37:57;19.33;;;9.43;;
72275;SDS011;61204;49.980;8.358;2022-10-31T05:40:24;13.77;;;9.77;;
72275;SDS011;61204;49.980;8.358;2022-10-31T05:42:52;17.80;;;10.85;;
72275;SDS011;61204;49.980;8.358;2022-10-31T05:45:23;19.42;;;10.52;;
72275;SDS011;61204;49.980;8.358;2022-10-31T05:47:52;17.55;;;10.02;;
72275;SDS011;61204;49.980;8.358;2022-10-31T05:50:21;15.73;;;9.68;;
72275;SDS011;61204;49.980;8.358;2022-10-31T05:52:53;15.73;;;9.55;;
72275;SDS011;61204;49.980;8.358;2022-10-31T05:55:29;18.05;;;9.80;;
72275;SDS011;61204;49.980;8.358;2022-10-31T05:57:56;25.20;;;11.60;;
72275;SDS011;61204;49.980;8.358;2022-10-31T06:00:22;19.83;;;11.68;;
72275;SDS011;61204;49.980;8.358;2022-10-31T06:02:57;19.25;;;11.20;;
72275;SDS011;61204;49.980;8.358;2022-10-31T06:05:25;20.48;;;10.20;;
72275;SDS011;61204;49.980;8.358;2022-10-31T06:07:51;21.00;;;10.90;;
72275;SDS011;61204;49.980;8.358;2022-10-31T06:10:17;15.93;;;9.55;;
72275;SDS011;61204;49.980;8.358;2022-10-31T06:12:44;18.23;;;10.02;;
72275;SDS011;61204;49.980;8.358;2022-10-31T06:15:09;19.63;;;10.32;;
72275;SDS011;61204;49.980;8.358;2022-10-31T06:17:35;16.80;;;9.98;;
72275;SDS011;61204;49.980;8.358;2022-10-31T06:20:01;18.05;;;10.57;;
72275;SDS011;61204;49.980;8.358;2022-10-31T06:22:28;15.77;;;10.52;;
72275;SDS011;61204;49.980;8.358;2022-10-31T06:24:54;21.58;;;10.73;;
72275;SDS011;61204;49.980;8.358;2022-10-31T06:27:20;17.38;;;10.52;;
72275;SDS011;61204;49.980;8.358;2022-10-31T06:29:46;12.55;;;9.52;;
72275;SDS011;61204;49.980;8.358;2022-10-31T06:32:13;20.42;;;10.50;;
72275;SDS011;61204;49.980;8.358;2022-10-31T06:34:40;15.93;;;10.77;;
72275;SDS011;61204;49.980;8.358;2022-10-31T06:37:07;15.70;;;10.43;;
72275;SDS011;61204;49.980;8.358;2022-10-31T06:39:35;15.43;;;10.27;;
72275;SDS011;61204;49.980;8.358;2022-10-31T06:42:01;14.40;;;10.15;;
72275;SDS011;61204;49.980;8.358;2022-10-31T06:44:29;13.75;;;9.43;;
72275;SDS011;61204;49.980;8.358;2022-10-31T06:46:55;15.75;;;10.00;;
72275;SDS011;61204;49.980;8.358;2022-10-31T06:49:21;14.77;;;10.38;;
72275;SDS011;61204;49.980;8.358;2022-10-31T06:51:47;20.85;;;10.45;;
72275;SDS011;61204;49.980;8.358;2022-10-31T06:54:15;15.80;;;10.40;;
72275;SDS011;61204;49.980;8.358;2022-10-31T06:56:41;22.75;;;9.60;;
72275;SDS011;61204;49.980;8.358;2022-10-31T06:59:07;17.08;;;10.82;;
72275;SDS011;61204;49.980;8.358;2022-10-31T07:01:33;17.95;;;9.73;;
72275;SDS011;61204;49.980;8.358;2022-10-31T07:03:58;13.98;;;9.65;;
72275;SDS011;61204;49.980;8.358;2022-10-31T07:06:24;15.27;;;9.18;;
72275;SDS011;61204;49.980;8.358;2022-10-31T07:08:50;13.13;;;7.68;;
72275;SDS011;61204;49.980;8.358;2022-10-31T07:11:15;18.13;;;9.02;;
72275;SDS011;61204;49.980;8.358;2022-10-31T07:13:41;11.57;;;8.32;;
72275;SDS011;61204;49.980;8.358;2022-10-31T07:16:07;12.60;;;8.85;;
72275;SDS011;61204;49.980;8.358;2022-10-31T07:18:37;14.57;;;8.50;;
72275;SDS011;61204;49.980;8.358;2022-10-31T07:21:03;15.30;;;7.97;;
72275;SDS011;61204;49.980;8.358;2022-10-31T07:23:29;15.98;;;8.90;;
72275;SDS011;61204;49.980;8.358;2022-10-31T07:25:55;14.30;;;8.93;;
72275;SDS011;61204;49.980;8.358;2022-10-31T07:28:22;17.17;;;8.98;;
72275;SDS011;61204;49.980;8.358;2022-10-31T07:30:53;16.65;;;8.23;;
72275;SDS011;61204;49.980;8.358;2022-10-31T07:33:22;13.82;;;8.75;;
72275;SDS011;61204;49.980;8.358;2022-10-31T07:35:52;13.73;;;7.93;;
72275;SDS011;61204;49.980;8.358;2022-10-31T07:38:19;16.15;;;8.43;;
72275;SDS011;61204;49.980;8.358;2022-10-31T07:40:48;17.05;;;7.72;;
72275;SDS011;61204;49.980;8.358;2022-10-31T07:43:17;22.65;;;9.20;;
72275;SDS011;61204;49.980;8.358;2022-10-31T07:45:48;17.30;;;9.43;;
72275;SDS011;61204;49.980;8.358;2022-10-31T07:48:18;14.00;;;8.55;;
72275;SDS011;61204;49.980;8.358;2022-10-31T07:50:44;16.27;;;9.68;;
72275;SDS011;61204;49.980;8.358;2022-10-31T07:53:11;21.27;;;9.77;;
72275;SDS011;61204;49.980;8.358;2022-10-31T07:55:39;18.52;;;9.70;;
72275;SDS011;61204;49.980;8.358;2022-10-31T07:58:06;18.77;;;10.00;;
72275;SDS011;61204;49.980;8.358;2022-10-31T08:00:39;19.38;;;10.57;;
72275;SDS011;61204;49.980;8.358;2022-10-31T08:03:08;21.33;;;11.75;;
72275;SDS011;61204;49.980;8.358;2022-10-31T08:05:41;20.45;;;10.90;;
72275;SDS011;61204;49.980;8.358;2022-10-31T08:08:10;19.85;;;11.55;;
72275;SDS011;61204;49.980;8.358;2022-10-31T08:10:38;19.15;;;10.90;;
72275;SDS011;61204;49.980;8.358;2022-10-31T08:13:09;18.00;;;11.60;;
72275;SDS011;61204;49.980;8.358;2022-10-31T08:15:38;18.75;;;11.27;;
72275;SDS011;61204;49.980;8.358;2022-10-31T08:18:06;22.23;;;11.98;;
72275;SDS011;61204;49.980;8.358;2022-10-31T08:20:39;18.95;;;11.50;;
72275;SDS011;61204;49.980;8.358;2022-10-31T08:23:06;15.07;;;10.30;;
72275;SDS011;61204;49.980;8.358;2022-10-31T08:25:35;16.55;;;10.68;;
72275;SDS011;61204;49.980;8.358;2022-10-31T08:28:01;17.88;;;10.65;;
72275;SDS011;61204;49.980;8.358;2022-10-31T08:30:30;23.50;;;10.98;;
72275;SDS011;61204;49.980;8.358;2022-10-31T08:35:40;18.63;;;10.18;;
72275;SDS011;61204;49.980;8.358;2022-10-31T08:38:07;19.48;;;9.75;;
72275;SDS011;61204;49.980;8.358;2022-10-31T08:40:37;16.73;;;9.77;;
72275;SDS011;61204;49.980;8.358;2022-10-31T08:43:04;15.82;;;9.55;;
72275;SDS011;61204;49.980;8.358;2022-10-31T08:45:41;15.93;;;8.80;;
72275;SDS011;61204;49.980;8.358;2022-10-31T08:48:10;15.52;;;8.98;;
72275;SDS011;61204;49.980;8.358;2022-10-31T08:50:42;13.35;;;9.13;;
72275;SDS011;61204;49.980;8.358;2022-10-31T08:53:17;13.57;;;8.20;;
72275;SDS011;61204;49.980;8.358;2022-10-31T08:55:45;15.75;;;8.77;;
72275;SDS011;61204;49.980;8.358;2022-10-31T08:58:13;10.95;;;7.53;;
72275;SDS011;61204;49.980;8.358;2022-10-31T09:00:43;14.68;;;7.93;;
72275;SDS011;61204;49.980;8.358;2022-10-31T09:03:13;12.93;;;8.32;;
72275;SDS011;61204;49.980;8.358;2022-10-31T09:05:46;12.00;;;7.68;;
72275;SDS011;61204;49.980;8.358;2022-10-31T09:08:12;12.13;;;7.50;;
72275;SDS011;61204;49.980;8.358;2022-10-31T09:10:40;13.27;;;6.93;;
72275;SDS011;61204;49.980;8.358;2022-10-31T09:13:10;14.52;;;6.47;;
72275;SDS011;61204;49.980;8.358;2022-10-31T09:15:41;10.25;;;6.93;;
72275;SDS011;61204;49.980;8.358;2022-10-31T09:18:10;13.48;;;7.28;;
72275;SDS011;61204;49.980;8.358;2022-10-31T09:20:41;14.40;;;7.47;;
72275;SDS011;61204;49.980;8.358;2022-10-31T09:23:11;26.60;;;8.00;;
72275;SDS011;61204;49.980;8.358;2022-10-31T09:25:41;13.95;;;7.57;;
72275;SDS011;61204;49.980;8.358;2022-10-31T09:28:10;10.13;;;7.40;;
72275;SDS011;61204;49.980;8.358;2022-10-31T09:30:39;18.45;;;7.25;;
72275;SDS011;61204;49.980;8.358;2022-10-31T09:33:11;12.07;;;6.32;;
72275;SDS011;61204;49.980;8.358;2022-10-31T09:35:38;9.20;;;6.07;;
72275;SDS011;61204;49.980;8.358;2022-10-31T09:38:09;11.15;;;6.30;;
72275;SDS011;61204;49.980;8.358;2022-10-31T09:40:43;12.45;;;6.53;;
72275;SDS011;61204;49.980;8.358;2022-10-31T09:43:57;13.50;;;6.85;;
72275;SDS011;61204;49.980;8.358;2022-10-31T09:46:49;9.05;;;6.35;;
72275;SDS011;61204;49.980;8.358;2022-10-31T09:52:22;13.68;;;6.63;;
72275;SDS011;61204;49.980;8.358;2022-10-31T09:54:58;10.95;;;6.22;;
72275;SDS011;61204;49.980;8.358;2022-10-31T09:57:34;15.85;;;6.93;;
72275;SDS011;61204;49.980;8.358;2022-10-31T10:00:06;16.35;;;6.90;;
72275;SDS011;61204;49.980;8.358;2022-10-31T10:02:49;12.07;;;7.03;;
72275;SDS011;61204;49.980;8.358;2022-10-31T10:08:43;13.13;;;7.60;;
72275;SDS011;61204;49.980;8.358;2022-10-31T10:15:03;9.80;;;6.57;;
72275;SDS011;61204;49.980;8.358;2022-10-31T10:26:31;13.85;;;8.05;;
72275;SDS011;61204;49.980;8.358;2022-10-31T10:32:11;12.48;;;7.43;;
72275;SDS011;61204;49.980;8.358;2022-10-31T10:34:53;15.63;;;8.52;;
72275;SDS011;61204;49.980;8.358;2022-10-31T10:37:40;12.10;;;7.68;;
72275;SDS011;61204;49.980;8.358;2022-10-31T10:40:13;13.90;;;7.95;;
72275;SDS011;61204;49.980;8.358;2022-10-31T10:45:57;13.77;;;9.15;;
72275;SDS011;61204;49.980;8.358;2022-10-31T10:49:02;15.57;;;8.32;;
72275;SDS011;61204;49.980;8.358;2022-10-31T10:52:04;12.93;;;7.93;;
72275;SDS011;61204;49.980;8.358;2022-10-31T10:58:11;13.88;;;8.40;;
72275;SDS011;61204;49.980;8.358;2022-10-31T11:00:41;19.88;;;8.68;;
72275;SDS011;61204;49.980;8.358;2022-10-31T11:03:11;13.65;;;8.60;;
72275;SDS011;61204;49.980;8.358;2022-10-31T11:05:41;16.33;;;8.85;;
72275;SDS011;61204;49.980;8.358;2022-10-31T11:08:27;18.70;;;9.07;;
72275;SDS011;61204;49.980;8.358;2022-10-31T11:11:01;15.75;;;8.27;;
72275;SDS011;61204;49.980;8.358;2022-10-31T11:13:44;21.63;;;9.45;;
72275;SDS011;61204;49.980;8.358;2022-10-31T11:16:27;12.75;;;9.05;;
72275;SDS011;61204;49.980;8.358;2022-10-31T11:19:06;16.83;;;8.98;;
72275;SDS011;61204;49.980;8.358;2022-10-31T11:21:45;15.98;;;8.85;;
72275;SDS011;61204;49.980;8.358;2022-10-31T11:24:14;12.88;;;8.27;;
72275;SDS011;61204;49.980;8.358;2022-10-31T11:26:45;12.43;;;8.30;;
72275;SDS011;61204;49.980;8.358;2022-10-31T11:29:22;12.82;;;8.60;;
72275;SDS011;61204;49.980;8.358;2022-10-31T11:31:51;12.70;;;8.70;;
72275;SDS011;61204;49.980;8.358;2022-10-31T11:34:25;11.38;;;8.38;;
72275;SDS011;61204;49.980;8.358;2022-10-31T11:39:48;16.23;;;8.50;;
72275;SDS011;61204;49.980;8.358;2022-10-31T11:42:23;12.27;;;8.02;;
72275;SDS011;61204;49.980;8.358;2022-10-31T11:44:54;16.13;;;8.13;;
72275;SDS011;61204;49.980;8.358;2022-10-31T11:47:25;16.58;;;8.38;;
72275;SDS011;61204;49.980;8.358;2022-10-31T11:49:57;15.57;;;8.20;;
72275;SDS011;61204;49.980;8.358;2022-10-31T11:52:36;14.52;;;7.70;;
72275;SDS011;61204;49.980;8.358;2022-10-31T11:57:46;17.25;;;8.00;;
72275;SDS011;61204;49.980;8.358;2022-10-31T12:03:10;14.07;;;7.82;;
72275;SDS011;61204;49.980;8.358;2022-10-31T12:08:48;15.27;;;7.72;;
72275;SDS011;61204;49.980;8.358;2022-10-31T12:17:36;12.45;;;7.35;;
72275;SDS011;61204;49.980;8.358;2022-10-31T12:26:30;18.70;;;7.97;;
72275;SDS011;61204;49.980;8.358;2022-10-31T12:32:01;16.25;;;8.02;;
72275;SDS011;61204;49.980;8.358;2022-10-31T12:34:45;20.05;;;7.72;;
72275;SDS011;61204;49.980;8.358;2022-10-31T12:53:35;13.68;;;6.50;;
72275;SDS011;61204;49.980;8.358;2022-10-31T13:10:56;14.48;;;7.85;;
72275;SDS011;61204;49.980;8.358;2022-10-31T13:16:37;10.63;;;7.03;;
72275;SDS011;61204;49.980;8.358;2022-10-31T13:22:17;12.52;;;6.72;;
72275;SDS011;61204;49.980;8.358;2022-10-31T13:24:58;13.10;;;6.82;;
72275;SDS011;61204;49.980;8.358;2022-10-31T13:27:58;14.27;;;6.93;;
72275;SDS011;61204;49.980;8.358;2022-10-31T13:30:49;13.68;;;7.78;;
72275;SDS011;61204;49.980;8.358;2022-10-31T13:33:18;15.05;;;7.60;;
72275;SDS011;61204;49.980;8.358;2022-10-31T13:36:38;13.77;;;7.10;;
72275;SDS011;61204;49.980;8.358;2022-10-31T13:39:25;13.70;;;7.47;;
72275;SDS011;61204;49.980;8.358;2022-10-31T13:42:19;11.20;;;6.90;;
72275;SDS011;61204;49.980;8.358;2022-10-31T13:45:15;21.02;;;7.80;;
72275;SDS011;61204;49.980;8.358;2022-10-31T13:47:55;10.40;;;6.78;;
72275;SDS011;61204;49.980;8.358;2022-10-31T13:50:31;17.20;;;7.22;;
72275;SDS011;61204;49.980;8.358;2022-10-31T13:53:18;10.73;;;6.53;;
72275;SDS011;61204;49.980;8.358;2022-10-31T13:55:48;13.77;;;6.35;;
72275;SDS011;61204;49.980;8.358;2022-10-31T13:58:30;11.20;;;5.95;;
72275;SDS011;61204;49.980;8.358;2022-10-31T14:03:46;17.27;;;6.75;;
72275;SDS011;61204;49.980;8.358;2022-10-31T14:06:43;14.30;;;7.10;;
72275;SDS011;61204;49.980;8.358;2022-10-31T14:09:48;13.25;;;6.80;;
72275;SDS011;61204;49.980;8.358;2022-10-31T14:13:20;14.13;;;7.20;;
72275;SDS011;61204;49.980;8.358;2022-10-31T14:18:34;14.52;;;6.70;;
72275;SDS011;61204;49.980;8.358;2022-10-31T14:23:48;15.55;;;10.00;;
72275;SDS011;61204;49.980;8.358;2022-10-31T14:26:19;15.68;;;6.85;;
72275;SDS011;61204;49.980;8.358;2022-10-31T14:28:50;14.10;;;6.93;;
72275;SDS011;61204;49.980;8.358;2022-10-31T14:32:01;18.30;;;8.25;;
72275;SDS011;61204;49.980;8.358;2022-10-31T14:34:22;22.15;;;18.85;;
72275;SDS011;61204;49.980;8.358;2022-10-31T14:53:17;12.48;;;7.40;;
72275;SDS011;61204;49.980;8.358;2022-10-31T14:55:52;16.40;;;7.72;;
72275;SDS011;61204;49.980;8.358;2022-10-31T14:58:22;15.40;;;6.70;;
72275;SDS011;61204;49.980;8.358;2022-10-31T15:01:02;15.80;;;6.50;;
72275;SDS011;61204;49.980;8.358;2022-10-31T15:03:34;11.68;;;6.88;;
72275;SDS011;61204;49.980;8.358;2022-10-31T15:06:14;12.25;;;7.55;;
72275;SDS011;61204;49.980;8.358;2022-10-31T15:08:47;10.02;;;6.78;;
72275;SDS011;61204;49.980;8.358;2022-10-31T15:11:20;11.52;;;6.40;;
72275;SDS011;61204;49.980;8.358;2022-10-31T15:13:53;15.40;;;7.00;;
72275;SDS011;61204;49.980;8.358;2022-10-31T15:16:24;18.13;;;7.75;;
72275;SDS011;61204;49.980;8.358;2022-10-31T15:19:10;13.55;;;7.03;;
72275;SDS011;61204;49.980;8.358;2022-10-31T15:21:46;14.50;;;7.50;;
72275;SDS011;61204;49.980;8.358;2022-10-31T15:24:12;15.85;;;7.47;;
72275;SDS011;61204;49.980;8.358;2022-10-31T15:26:43;15.18;;;7.72;;
72275;SDS011;61204;49.980;8.358;2022-10-31T15:29:14;15.05;;;8.00;;
72275;SDS011;61204;49.980;8.358;2022-10-31T15:31:57;15.20;;;7.30;;
72275;SDS011;61204;49.980;8.358;2022-10-31T15:34:42;13.20;;;7.43;;
72275;SDS011;61204;49.980;8.358;2022-10-31T15:37:16;12.98;;;7.45;;
72275;SDS011;61204;49.980;8.358;2022-10-31T15:39:49;12.45;;;6.90;;
72275;SDS011;61204;49.980;8.358;2022-10-31T15:42:20;15.40;;;7.13;;
72275;SDS011;61204;49.980;8.358;2022-10-31T15:45:21;17.50;;;8.43;;
72275;SDS011;61204;49.980;8.358;2022-10-31T15:47:55;17.30;;;8.50;;
72275;SDS011;61204;49.980;8.358;2022-10-31T15:50:38;18.42;;;8.70;;
72275;SDS011;61204;49.980;8.358;2022-10-31T15:53:34;18.40;;;7.82;;
72275;SDS011;61204;49.980;8.358;2022-10-31T15:56:12;15.90;;;8.27;;
72275;SDS011;61204;49.980;8.358;2022-10-31T15:58:48;11.90;;;7.82;;
72275;SDS011;61204;49.980;8.358;2022-10-31T16:01:19;23.42;;;8.48;;
72275;SDS011;61204;49.980;8.358;2022-10-31T16:09:53;15.10;;;8.73;;
72275;SDS011;61204;49.980;8.358;2022-10-31T16:12:45;15.20;;;8.95;;
72275;SDS011;61204;49.980;8.358;2022-10-31T16:15:15;14.82;;;8.15;;
72275;SDS011;61204;49.980;8.358;2022-10-31T16:17:46;16.50;;;8.57;;
72275;SDS011;61204;49.980;8.358;2022-10-31T16:20:23;14.02;;;8.30;;
72275;SDS011;61204;49.980;8.358;2022-10-31T16:22:54;16.73;;;7.80;;
72275;SDS011;61204;49.980;8.358;2022-10-31T16:25:27;15.35;;;8.10;;
72275;SDS011;61204;49.980;8.358;2022-10-31T16:28:13;14.27;;;8.45;;
72275;SDS011;61204;49.980;8.358;2022-10-31T16:33:27;15.15;;;8.13;;
72275;SDS011;61204;49.980;8.358;2022-10-31T16:39:03;12.70;;;8.50;;
72275;SDS011;61204;49.980;8.358;2022-10-31T16:41:37;14.00;;;8.05;;
72275;SDS011;61204;49.980;8.358;2022-10-31T16:44:15;21.55;;;8.70;;
72275;SDS011;61204;49.980;8.358;2022-10-31T16:46:48;13.05;;;7.80;;
72275;SDS011;61204;49.980;8.358;2022-10-31T16:49:34;15.55;;;8.20;;
72275;SDS011;61204;49.980;8.358;2022-10-31T16:51:59;12.57;;;8.25;;
72275;SDS011;61204;49.980;8.358;2022-10-31T16:54:25;17.17;;;9.25;;
72275;SDS011;61204;49.980;8.358;2022-10-31T16:56:50;13.55;;;8.02;;
72275;SDS011;61204;49.980;8.358;2022-10-31T16:59:16;12.18;;;7.50;;
72275;SDS011;61204;49.980;8.358;2022-10-31T17:01:42;16.05;;;8.40;;
72275;SDS011;61204;49.980;8.358;2022-10-31T17:04:14;18.90;;;7.57;;
72275;SDS011;61204;49.980;8.358;2022-10-31T17:06:40;15.32;;;9.00;;
72275;SDS011;61204;49.980;8.358;2022-10-31T17:09:07;13.82;;;8.70;;
72275;SDS011;61204;49.980;8.358;2022-10-31T17:11:33;14.00;;;9.20;;
72275;SDS011;61204;49.980;8.358;2022-10-31T17:14:00;15.32;;;8.70;;
72275;SDS011;61204;49.980;8.358;2022-10-31T17:16:28;17.15;;;8.80;;
72275;SDS011;61204;49.980;8.358;2022-10-31T17:18:54;22.67;;;10.20;;
72275;SDS011;61204;49.980;8.358;2022-10-31T17:21:20;16.63;;;9.60;;
72275;SDS011;61204;49.980;8.358;2022-10-31T17:23:49;19.17;;;12.20;;
72275;SDS011;61204;49.980;8.358;2022-10-31T17:26:15;17.95;;;9.05;;
72275;SDS011;61204;49.980;8.358;2022-10-31T17:28:41;17.00;;;8.98;;
72275;SDS011;61204;49.980;8.358;2022-10-31T17:31:10;18.27;;;11.27;;
72275;SDS011;61204;49.980;8.358;2022-10-31T17:33:54;13.93;;;9.90;;
72275;SDS011;61204;49.980;8.358;2022-10-31T17:36:21;18.70;;;10.02;;
72275;SDS011;61204;49.980;8.358;2022-10-31T17:38:47;18.95;;;11.27;;
72275;SDS011;61204;49.980;8.358;2022-10-31T17:41:13;16.45;;;11.07;;
72275;SDS011;61204;49.980;8.358;2022-10-31T17:43:40;18.13;;;10.80;;
72275;SDS011;61204;49.980;8.358;2022-10-31T17:46:06;23.08;;;13.40;;
72275;SDS011;61204;49.980;8.358;2022-10-31T17:48:32;19.52;;;11.23;;
72275;SDS011;61204;49.980;8.358;2022-10-31T17:51:01;20.25;;;12.35;;
72275;SDS011;61204;49.980;8.358;2022-10-31T17:53:31;17.30;;;11.95;;